Siam — SGIP — position and weather

sailwx.info

Track history (hours):
 
Tides and Currents Weather Stations Pressure Air Temp Water Temp Dewpoint Dewpoint Depression Visibility Wind Speed Wind Dir Waves Ship Positions

Siam

Last reported at 2015-Mar-27 10:31 UTC. Time now 2015-Mar-27 11:58 UTC.
Position N 56°01' E 012°41'.

Length 22 m.

Type: Passenger vessel. MMSI: 265572320.

Date/timePositionNaut miles runAvg speedWind from/ knotsBaromVisibWave heightAir tempDewpointWater temp
2015-Mar-27 10:31N 56°01' E 012°41'2 2.0
2015-Mar-27 09:26N 56°03' E 012°39'2 2.0
2015-Mar-27 08:33N 56°02' E 012°40'3 3.0
2015-Mar-27 07:32N 55°59' E 012°41'2 2.1
2015-Mar-27 06:32N 55°60' E 012°45'0 0.0
2015-Mar-27 05:32N 55°60' E 012°45'0 0.0
2015-Mar-27 04:33N 55°60' E 012°45'0 0.0
2015-Mar-27 03:32N 55°60' E 012°45'0 0.0
2015-Mar-27 02:26N 55°60' E 012°45'0 0.0
2015-Mar-27 01:33N 55°60' E 012°45'0 0.0
2015-Mar-27 00:30N 55°60' E 012°45'0 0.0
2015-Mar-26 23:32N 55°60' E 012°45'0 0.0
2015-Mar-26 22:32N 55°60' E 012°45'0 0.0
2015-Mar-26 21:32N 55°60' E 012°45'0 0.0
2015-Mar-26 20:32N 55°60' E 012°45'0 0.0
2015-Mar-26 19:32N 55°60' E 012°45'0 0.0
2015-Mar-26 18:32N 55°60' E 012°45'0 0.0
2015-Mar-26 17:29N 55°60' E 012°45'0 0.0
2015-Mar-26 16:32N 55°60' E 012°45'0 0.0
2015-Mar-26 15:29N 55°60' E 012°45'0 0.0
2015-Mar-26 14:33N 55°60' E 012°45'0 0.0
2015-Mar-26 13:26N 55°60' E 012°45'0 0.0
2015-Mar-26 12:32N 55°60' E 012°45'0 0.0
2015-Mar-26 11:32N 55°60' E 012°45'0 0.0
2015-Mar-26 10:26N 55°60' E 012°45'0 0.0
2015-Mar-26 09:33N 55°60' E 012°45'0 0.0
2015-Mar-26 08:33N 55°60' E 012°45'0 0.0
2015-Mar-26 07:33N 55°60' E 012°45'0 0.0
2015-Mar-26 06:29N 55°60' E 012°45'0 0.0
2015-Mar-26 05:33N 55°60' E 012°45'0 0.0
2015-Mar-26 04:33N 55°60' E 012°45'0 0.0
2015-Mar-26 03:30N 55°60' E 012°45'0 0.0
2015-Mar-26 02:32N 55°60' E 012°45'0 0.0
2015-Mar-26 01:30N 55°60' E 012°45'0 0.0
2015-Mar-26 00:29N 55°60' E 012°45'0 0.0
2015-Mar-25 23:26N 55°60' E 012°45'0 0.0
2015-Mar-25 22:32N 55°60' E 012°45'0 0.0
2015-Mar-25 21:29N 55°60' E 012°45'0 0.0
2015-Mar-25 20:32N 55°60' E 012°45'0 0.0
2015-Mar-25 19:32N 55°60' E 012°45'0 0.0
2015-Mar-25 18:32N 55°60' E 012°45'0 0.0
2015-Mar-25 17:32N 55°60' E 012°45'1 1.3
2015-Mar-25 16:33N 55°60' E 012°42'1 0.6
2015-Mar-25 15:32N 55°59' E 012°42'1 0.8
2015-Mar-25 14:33N 55°60' E 012°42'1 1.4
2015-Mar-25 13:29N 55°60' E 012°45'0 0.0
2015-Mar-25 12:32N 55°60' E 012°45'0 0.0
2015-Mar-25 11:29N 55°60' E 012°45'0 0.0
2015-Mar-25 10:32N 55°60' E 012°45'0 0.0
2015-Mar-25 09:29N 55°60' E 012°45'0 0.0
2015-Mar-25 08:29N 55°60' E 012°45'0 0.0
2015-Mar-25 07:32N 55°60' E 012°45'0 0.0
2015-Mar-25 06:32N 55°60' E 012°45'0 0.0
2015-Mar-25 05:32N 55°60' E 012°45'0 0.0
2015-Mar-25 04:29N 55°60' E 012°45'0 0.0
2015-Mar-25 03:32N 55°60' E 012°45'0 0.0
2015-Mar-25 02:29N 55°60' E 012°45'0 0.0
2015-Mar-25 01:32N 55°60' E 012°45'0 0.0
2015-Mar-25 00:32N 55°60' E 012°45'0 0.0
2015-Mar-24 23:32N 55°60' E 012°45'0 0.0
2015-Mar-24 22:29N 55°60' E 012°45'0 0.0
2015-Mar-24 21:20N 55°60' E 012°45'0 0.0
2015-Mar-24 20:29N 55°60' E 012°45'0 0.0
2015-Mar-24 19:32N 55°60' E 012°45'0 0.0
2015-Mar-24 18:32N 55°60' E 012°45'0 0.0
2015-Mar-24 17:32N 55°60' E 012°45'0 0.0
2015-Mar-24 16:26N 55°60' E 012°45'0 0.0
2015-Mar-24 15:26N 55°60' E 012°45'0 0.0
2015-Mar-24 14:32N 55°60' E 012°45'0 0.0
2015-Mar-24 13:32N 55°60' E 012°45'0 0.0
2015-Mar-24 12:32N 55°60' E 012°45'0 0.0
2015-Mar-24 11:32N 55°60' E 012°45'0 0.0
2015-Mar-24 10:32N 55°60' E 012°45'0 0.0
2015-Mar-24 09:32N 55°60' E 012°45'0 0.0
2015-Mar-24 08:32N 55°60' E 012°45'0 0.0
2015-Mar-24 07:29N 55°60' E 012°45'0 0.0
2015-Mar-24 06:29N 55°60' E 012°45'0 0.0
2015-Mar-23 20:05N 55°60' E 012°45'0 0.0
2015-Mar-23 19:32N 55°60' E 012°45'0 0.0
2015-Mar-23 18:32N 55°60' E 012°45'0 0.0
2015-Mar-23 17:29N 55°60' E 012°45'0 0.0
2015-Mar-23 16:32N 55°60' E 012°45'0 0.0
2015-Mar-23 15:32N 55°60' E 012°45'0 0.0
2015-Mar-23 11:29N 55°60' E 012°45'1 0.1
2015-Mar-22 12:31N 55°59' E 012°42'1 0.1
2015-Mar-21 18:31N 55°60' E 012°45'0 0.0
2015-Mar-21 17:31N 55°60' E 012°45'0 0.0
2015-Mar-21 16:31N 55°60' E 012°45'0 0.0
2015-Mar-21 15:31N 55°60' E 012°45'0 0.0
2015-Mar-21 14:28N 55°60' E 012°45'1 1.5
2015-Mar-21 13:31N 56°00' E 012°42'0 0.4
2015-Mar-21 12:32N 55°60' E 012°42'1 1.3
2015-Mar-21 11:33N 55°59' E 012°44'1 1.2
2015-Mar-21 10:28N 55°60' E 012°42'0 0.1
2015-Mar-21 09:31N 55°60' E 012°42'1 1.1
2015-Mar-21 08:28N 55°59' E 012°42'0 0.1
2015-Mar-21 07:31N 55°59' E 012°41'2 2.0
2015-Mar-21 06:31N 55°60' E 012°45'0 0.0
2015-Mar-21 05:33N 55°60' E 012°45'0 0.0
2015-Mar-21 04:33N 55°60' E 012°45'0 0.0
2015-Mar-21 03:31N 55°60' E 012°45'0 0.0
2015-Mar-21 02:31N 55°60' E 012°45'0 0.0
2015-Mar-21 01:31N 55°60' E 012°45'0 0.0
2015-Mar-21 00:34N 55°60' E 012°45'0 0.0
2015-Mar-20 23:31N 55°60' E 012°45'0 0.0
2015-Mar-20 22:31N 55°60' E 012°45'0 0.0
2015-Mar-20 21:31N 55°60' E 012°45'0 0.0
2015-Mar-20 20:31N 55°60' E 012°45'0 0.0
2015-Mar-20 19:31N 55°60' E 012°45'0 0.0
2015-Mar-20 18:31N 55°60' E 012°45'0 0.0
2015-Mar-20 17:28N 55°60' E 012°45'0 0.0
2015-Mar-20 16:31N 55°60' E 012°45'0 0.0
2015-Mar-20 13:28N 55°60' E 012°45'0 0.0
2015-Mar-20 12:31N 55°60' E 012°45'0 0.0
2015-Mar-20 11:31N 55°60' E 012°45'0 0.0
2015-Mar-20 10:31N 55°60' E 012°45'0 0.0
2015-Mar-20 09:31N 55°60' E 012°45'0 0.0
2015-Mar-20 08:31N 55°60' E 012°45'0 0.0
2015-Mar-20 07:31N 55°60' E 012°45'0 0.0
2015-Mar-20 06:31N 55°60' E 012°45'0 0.0
2015-Mar-20 05:31N 55°60' E 012°45'0 0.0
2015-Mar-20 04:28N 55°60' E 012°45'0 0.0
2015-Mar-20 03:31N 55°60' E 012°45'0 0.0
2015-Mar-20 02:31N 55°60' E 012°45'0 0.0
2015-Mar-20 01:31N 55°60' E 012°45'0 0.0
2015-Mar-20 00:31N 55°60' E 012°45'0 0.0
2015-Mar-19 23:31N 55°60' E 012°45'0 0.0
2015-Mar-19 22:31N 55°60' E 012°45'0 0.0
2015-Mar-19 21:31N 55°60' E 012°45'0 0.0
2015-Mar-19 20:31N 55°60' E 012°45'0 0.0
2015-Mar-19 19:31N 55°60' E 012°45'0 0.0
2015-Mar-19 18:31N 55°60' E 012°45'0 0.0
2015-Mar-19 17:31N 55°60' E 012°45'0 0.0
2015-Mar-19 16:31N 55°60' E 012°45'0 0.0
2015-Mar-19 15:31N 55°60' E 012°45'0 0.0
2015-Mar-19 14:31N 55°60' E 012°45'0 0.0
2015-Mar-19 13:31N 55°60' E 012°45'0 0.0
2015-Mar-19 12:31N 55°60' E 012°45'0 0.0
2015-Mar-19 11:28N 55°60' E 012°45'0 0.0
2015-Mar-19 10:31N 55°60' E 012°45'0 0.0
2015-Mar-19 09:31N 55°60' E 012°45'0 0.0
2015-Mar-19 08:31N 55°60' E 012°45'0 0.0
2015-Mar-19 07:31N 55°60' E 012°45'0 0.0
2015-Mar-19 06:25N 55°60' E 012°45'0 0.0
2015-Mar-19 05:28N 55°60' E 012°45'0 0.0
2015-Mar-19 04:31N 55°60' E 012°45'0 0.0
2015-Mar-19 03:31N 55°60' E 012°45'0 0.0
2015-Mar-19 02:25N 55°60' E 012°45'0 0.0
2015-Mar-19 01:31N 55°60' E 012°45'0 0.0
2015-Mar-19 00:31N 55°60' E 012°45'0 0.0
2015-Mar-18 23:31N 55°60' E 012°45'0 0.0
2015-Mar-18 22:31N 55°60' E 012°45'0 0.0
2015-Mar-18 21:31N 55°60' E 012°45'0 0.0
2015-Mar-18 20:31N 55°60' E 012°45'0 0.0
2015-Mar-18 19:31N 55°60' E 012°45'0 0.0
2015-Mar-18 18:31N 55°60' E 012°45'0 0.0
2015-Mar-18 17:28N 55°60' E 012°45'0 0.0
2015-Mar-18 16:31N 55°60' E 012°45'0 0.0
2015-Mar-18 15:31N 55°60' E 012°45'0 0.0
2015-Mar-18 14:31N 55°60' E 012°45'0 0.0
2015-Mar-18 13:31N 55°60' E 012°45'0 0.0
2015-Mar-18 12:25N 55°60' E 012°45'0 0.0
2015-Mar-18 11:31N 55°60' E 012°45'0 0.0
2015-Mar-18 10:31N 55°60' E 012°45'0 0.0
2015-Mar-18 09:31N 55°60' E 012°45'0 0.0
2015-Mar-18 08:31N 55°60' E 012°45'0 0.0
2015-Mar-18 07:31N 55°60' E 012°45'0 0.0
2015-Mar-18 06:31N 55°60' E 012°45'0 0.0
2015-Mar-18 05:28N 55°60' E 012°45'0 0.0
2015-Mar-18 04:31N 55°60' E 012°45'0 0.0
2015-Mar-18 03:31N 55°60' E 012°45'0 0.0
2015-Mar-18 02:31N 55°60' E 012°45'0 0.0
2015-Mar-18 01:31N 55°60' E 012°45'0 0.0
2015-Mar-18 00:31N 55°60' E 012°45'0 0.0
2015-Mar-17 23:31N 55°60' E 012°45'0 0.0
2015-Mar-17 22:31N 55°60' E 012°45'0 0.0
2015-Mar-17 21:31N 55°60' E 012°45'0 0.0
2015-Mar-17 20:31N 55°60' E 012°45'0 0.0
2015-Mar-17 19:28N 55°60' E 012°45'0 0.0
2015-Mar-17 18:31N 55°60' E 012°45'0 0.0
2015-Mar-17 17:25N 55°60' E 012°45'0 0.0
2015-Mar-17 16:31N 55°60' E 012°45'0 0.0
2015-Mar-17 15:31N 55°60' E 012°45'0 0.0
2015-Mar-17 14:31N 55°60' E 012°45'0 0.0
2015-Mar-17 13:31N 55°60' E 012°45'0 0.0
2015-Mar-17 12:31N 55°60' E 012°45'0 0.0
2015-Mar-17 11:31N 55°60' E 012°45'0 0.0
2015-Mar-17 10:31N 55°60' E 012°45'  
Track history (hours):
 
Tides and Currents Weather Stations Pressure Air Temp Water Temp Dewpoint Dewpoint Depression Visibility Wind Speed Wind Dir Waves Ship Positions

Siam

Last reported at 2015-Mar-27 10:31 UTC. Time now 2015-Mar-27 11:58 UTC.
Position N 56°01' E 012°41'.

Length 22 m.

Type: Passenger vessel. MMSI: 265572320.

Date/timePositionNaut miles runAvg speedWind from/ knotsBaromVisibWave heightAir tempDewpointWater temp
2015-Mar-27 10:31N 56°01' E 012°41'2 2.0
2015-Mar-27 09:26N 56°03' E 012°39'2 2.0
2015-Mar-27 08:33N 56°02' E 012°40'3 3.0
2015-Mar-27 07:32N 55°59' E 012°41'2 2.1
2015-Mar-27 06:32N 55°60' E 012°45'0 0.0
2015-Mar-27 05:32N 55°60' E 012°45'0 0.0
2015-Mar-27 04:33N 55°60' E 012°45'0 0.0
2015-Mar-27 03:32N 55°60' E 012°45'0 0.0
2015-Mar-27 02:26N 55°60' E 012°45'0 0.0
2015-Mar-27 01:33N 55°60' E 012°45'0 0.0
2015-Mar-27 00:30N 55°60' E 012°45'0 0.0
2015-Mar-26 23:32N 55°60' E 012°45'0 0.0
2015-Mar-26 22:32N 55°60' E 012°45'0 0.0
2015-Mar-26 21:32N 55°60' E 012°45'0 0.0
2015-Mar-26 20:32N 55°60' E 012°45'0 0.0
2015-Mar-26 19:32N 55°60' E 012°45'0 0.0
2015-Mar-26 18:32N 55°60' E 012°45'0 0.0
2015-Mar-26 17:29N 55°60' E 012°45'0 0.0
2015-Mar-26 16:32N 55°60' E 012°45'0 0.0
2015-Mar-26 15:29N 55°60' E 012°45'0 0.0
2015-Mar-26 14:33N 55°60' E 012°45'0 0.0
2015-Mar-26 13:26N 55°60' E 012°45'0 0.0
2015-Mar-26 12:32N 55°60' E 012°45'0 0.0
2015-Mar-26 11:32N 55°60' E 012°45'0 0.0
2015-Mar-26 10:26N 55°60' E 012°45'0 0.0
2015-Mar-26 09:33N 55°60' E 012°45'0 0.0
2015-Mar-26 08:33N 55°60' E 012°45'0 0.0
2015-Mar-26 07:33N 55°60' E 012°45'0 0.0
2015-Mar-26 06:29N 55°60' E 012°45'0 0.0
2015-Mar-26 05:33N 55°60' E 012°45'0 0.0
2015-Mar-26 04:33N 55°60' E 012°45'0 0.0
2015-Mar-26 03:30N 55°60' E 012°45'0 0.0
2015-Mar-26 02:32N 55°60' E 012°45'0 0.0
2015-Mar-26 01:30N 55°60' E 012°45'0 0.0
2015-Mar-26 00:29N 55°60' E 012°45'0 0.0
2015-Mar-25 23:26N 55°60' E 012°45'0 0.0
2015-Mar-25 22:32N 55°60' E 012°45'0 0.0
2015-Mar-25 21:29N 55°60' E 012°45'0 0.0
2015-Mar-25 20:32N 55°60' E 012°45'0 0.0
2015-Mar-25 19:32N 55°60' E 012°45'0 0.0
2015-Mar-25 18:32N 55°60' E 012°45'0 0.0
2015-Mar-25 17:32N 55°60' E 012°45'1 1.3
2015-Mar-25 16:33N 55°60' E 012°42'1 0.6
2015-Mar-25 15:32N 55°59' E 012°42'1 0.8
2015-Mar-25 14:33N 55°60' E 012°42'1 1.4
2015-Mar-25 13:29N 55°60' E 012°45'0 0.0
2015-Mar-25 12:32N 55°60' E 012°45'0 0.0
2015-Mar-25 11:29N 55°60' E 012°45'0 0.0
2015-Mar-25 10:32N 55°60' E 012°45'0 0.0
2015-Mar-25 09:29N 55°60' E 012°45'0 0.0
2015-Mar-25 08:29N 55°60' E 012°45'0 0.0
2015-Mar-25 07:32N 55°60' E 012°45'0 0.0
2015-Mar-25 06:32N 55°60' E 012°45'0 0.0
2015-Mar-25 05:32N 55°60' E 012°45'0 0.0
2015-Mar-25 04:29N 55°60' E 012°45'0 0.0
2015-Mar-25 03:32N 55°60' E 012°45'0 0.0
2015-Mar-25 02:29N 55°60' E 012°45'0 0.0
2015-Mar-25 01:32N 55°60' E 012°45'0 0.0
2015-Mar-25 00:32N 55°60' E 012°45'0 0.0
2015-Mar-24 23:32N 55°60' E 012°45'0 0.0
2015-Mar-24 22:29N 55°60' E 012°45'0 0.0
2015-Mar-24 21:20N 55°60' E 012°45'0 0.0
2015-Mar-24 20:29N 55°60' E 012°45'0 0.0
2015-Mar-24 19:32N 55°60' E 012°45'0 0.0
2015-Mar-24 18:32N 55°60' E 012°45'0 0.0
2015-Mar-24 17:32N 55°60' E 012°45'0 0.0
2015-Mar-24 16:26N 55°60' E 012°45'0 0.0
2015-Mar-24 15:26N 55°60' E 012°45'0 0.0
2015-Mar-24 14:32N 55°60' E 012°45'0 0.0
2015-Mar-24 13:32N 55°60' E 012°45'0 0.0
2015-Mar-24 12:32N 55°60' E 012°45'0 0.0
2015-Mar-24 11:32N 55°60' E 012°45'0 0.0
2015-Mar-24 10:32N 55°60' E 012°45'0 0.0
2015-Mar-24 09:32N 55°60' E 012°45'0 0.0
2015-Mar-24 08:32N 55°60' E 012°45'0 0.0
2015-Mar-24 07:29N 55°60' E 012°45'0 0.0
2015-Mar-24 06:29N 55°60' E 012°45'0 0.0
2015-Mar-23 20:05N 55°60' E 012°45'0 0.0
2015-Mar-23 19:32N 55°60' E 012°45'0 0.0
2015-Mar-23 18:32N 55°60' E 012°45'0 0.0
2015-Mar-23 17:29N 55°60' E 012°45'0 0.0
2015-Mar-23 16:32N 55°60' E 012°45'0 0.0
2015-Mar-23 15:32N 55°60' E 012°45'0 0.0
2015-Mar-23 11:29N 55°60' E 012°45'1 0.1
2015-Mar-22 12:31N 55°59' E 012°42'1 0.1
2015-Mar-21 18:31N 55°60' E 012°45'0 0.0
2015-Mar-21 17:31N 55°60' E 012°45'0 0.0
2015-Mar-21 16:31N 55°60' E 012°45'0 0.0
2015-Mar-21 15:31N 55°60' E 012°45'0 0.0
2015-Mar-21 14:28N 55°60' E 012°45'1 1.5
2015-Mar-21 13:31N 56°00' E 012°42'0 0.4
2015-Mar-21 12:32N 55°60' E 012°42'1 1.3
2015-Mar-21 11:33N 55°59' E 012°44'1 1.2
2015-Mar-21 10:28N 55°60' E 012°42'0 0.1
2015-Mar-21 09:31N 55°60' E 012°42'1 1.1
2015-Mar-21 08:28N 55°59' E 012°42'0 0.1
2015-Mar-21 07:31N 55°59' E 012°41'2 2.0
2015-Mar-21 06:31N 55°60' E 012°45'0 0.0
2015-Mar-21 05:33N 55°60' E 012°45'0 0.0
2015-Mar-21 04:33N 55°60' E 012°45'0 0.0
2015-Mar-21 03:31N 55°60' E 012°45'0 0.0
2015-Mar-21 02:31N 55°60' E 012°45'0 0.0
2015-Mar-21 01:31N 55°60' E 012°45'0 0.0
2015-Mar-21 00:34N 55°60' E 012°45'0 0.0
2015-Mar-20 23:31N 55°60' E 012°45'0 0.0
2015-Mar-20 22:31N 55°60' E 012°45'0 0.0
2015-Mar-20 21:31N 55°60' E 012°45'0 0.0
2015-Mar-20 20:31N 55°60' E 012°45'0 0.0
2015-Mar-20 19:31N 55°60' E 012°45'0 0.0
2015-Mar-20 18:31N 55°60' E 012°45'0 0.0
2015-Mar-20 17:28N 55°60' E 012°45'0 0.0
2015-Mar-20 16:31N 55°60' E 012°45'0 0.0
2015-Mar-20 13:28N 55°60' E 012°45'0 0.0
2015-Mar-20 12:31N 55°60' E 012°45'0 0.0
2015-Mar-20 11:31N 55°60' E 012°45'0 0.0
2015-Mar-20 10:31N 55°60' E 012°45'0 0.0
2015-Mar-20 09:31N 55°60' E 012°45'0 0.0
2015-Mar-20 08:31N 55°60' E 012°45'0 0.0
2015-Mar-20 07:31N 55°60' E 012°45'0 0.0
2015-Mar-20 06:31N 55°60' E 012°45'0 0.0
2015-Mar-20 05:31N 55°60' E 012°45'0 0.0
2015-Mar-20 04:28N 55°60' E 012°45'0 0.0
2015-Mar-20 03:31N 55°60' E 012°45'0 0.0
2015-Mar-20 02:31N 55°60' E 012°45'0 0.0
2015-Mar-20 01:31N 55°60' E 012°45'0 0.0
2015-Mar-20 00:31N 55°60' E 012°45'0 0.0
2015-Mar-19 23:31N 55°60' E 012°45'0 0.0
2015-Mar-19 22:31N 55°60' E 012°45'0 0.0
2015-Mar-19 21:31N 55°60' E 012°45'0 0.0
2015-Mar-19 20:31N 55°60' E 012°45'0 0.0
2015-Mar-19 19:31N 55°60' E 012°45'0 0.0
2015-Mar-19 18:31N 55°60' E 012°45'0 0.0
2015-Mar-19 17:31N 55°60' E 012°45'0 0.0
2015-Mar-19 16:31N 55°60' E 012°45'0 0.0
2015-Mar-19 15:31N 55°60' E 012°45'0 0.0
2015-Mar-19 14:31N 55°60' E 012°45'0 0.0
2015-Mar-19 13:31N 55°60' E 012°45'0 0.0
2015-Mar-19 12:31N 55°60' E 012°45'0 0.0
2015-Mar-19 11:28N 55°60' E 012°45'0 0.0
2015-Mar-19 10:31N 55°60' E 012°45'0 0.0
2015-Mar-19 09:31N 55°60' E 012°45'0 0.0
2015-Mar-19 08:31N 55°60' E 012°45'0 0.0
2015-Mar-19 07:31N 55°60' E 012°45'0 0.0
2015-Mar-19 06:25N 55°60' E 012°45'0 0.0
2015-Mar-19 05:28N 55°60' E 012°45'0 0.0
2015-Mar-19 04:31N 55°60' E 012°45'0 0.0
2015-Mar-19 03:31N 55°60' E 012°45'0 0.0
2015-Mar-19 02:25N 55°60' E 012°45'0 0.0
2015-Mar-19 01:31N 55°60' E 012°45'0 0.0
2015-Mar-19 00:31N 55°60' E 012°45'0 0.0
2015-Mar-18 23:31N 55°60' E 012°45'0 0.0
2015-Mar-18 22:31N 55°60' E 012°45'0 0.0
2015-Mar-18 21:31N 55°60' E 012°45'0 0.0
2015-Mar-18 20:31N 55°60' E 012°45'0 0.0
2015-Mar-18 19:31N 55°60' E 012°45'0 0.0
2015-Mar-18 18:31N 55°60' E 012°45'0 0.0
2015-Mar-18 17:28N 55°60' E 012°45'0 0.0
2015-Mar-18 16:31N 55°60' E 012°45'0 0.0
2015-Mar-18 15:31N 55°60' E 012°45'0 0.0
2015-Mar-18 14:31N 55°60' E 012°45'0 0.0
2015-Mar-18 13:31N 55°60' E 012°45'0 0.0
2015-Mar-18 12:25N 55°60' E 012°45'0 0.0
2015-Mar-18 11:31N 55°60' E 012°45'0 0.0
2015-Mar-18 10:31N 55°60' E 012°45'0 0.0
2015-Mar-18 09:31N 55°60' E 012°45'0 0.0
2015-Mar-18 08:31N 55°60' E 012°45'0 0.0
2015-Mar-18 07:31N 55°60' E 012°45'0 0.0
2015-Mar-18 06:31N 55°60' E 012°45'0 0.0
2015-Mar-18 05:28N 55°60' E 012°45'0 0.0
2015-Mar-18 04:31N 55°60' E 012°45'0 0.0
2015-Mar-18 03:31N 55°60' E 012°45'0 0.0
2015-Mar-18 02:31N 55°60' E 012°45'0 0.0
2015-Mar-18 01:31N 55°60' E 012°45'0 0.0
2015-Mar-18 00:31N 55°60' E 012°45'0 0.0
2015-Mar-17 23:31N 55°60' E 012°45'0 0.0
2015-Mar-17 22:31N 55°60' E 012°45'0 0.0
2015-Mar-17 21:31N 55°60' E 012°45'0 0.0
2015-Mar-17 20:31N 55°60' E 012°45'0 0.0
2015-Mar-17 19:28N 55°60' E 012°45'0 0.0
2015-Mar-17 18:31N 55°60' E 012°45'0 0.0
2015-Mar-17 17:25N 55°60' E 012°45'0 0.0
2015-Mar-17 16:31N 55°60' E 012°45'0 0.0
2015-Mar-17 15:31N 55°60' E 012°45'0 0.0
2015-Mar-17 14:31N 55°60' E 012°45'0 0.0
2015-Mar-17 13:31N 55°60' E 012°45'0 0.0
2015-Mar-17 12:31N 55°60' E 012°45'0 0.0
2015-Mar-17 11:31N 55°60' E 012°45'0 0.0
2015-Mar-17 10:31N 55°60' E 012°45'  

Dump ship's entire track history